sensor_id;sensor_type;location;lat;lon;timestamp;temperature;humidity
9305;DHT22;4690;52.422;13.486;2023-03-01T00:06:27;-2.10;99.90
9305;DHT22;4690;52.422;13.486;2023-03-01T00:08:54;-2.10;99.90
9305;DHT22;4690;52.422;13.486;2023-03-01T00:11:23;-2.10;99.90
9305;DHT22;4690;52.422;13.486;2023-03-01T00:13:53;-2.10;99.90
9305;DHT22;4690;52.422;13.486;2023-03-01T00:16:24;-2.10;99.90
9305;DHT22;4690;52.422;13.486;2023-03-01T00:18:53;-2.20;99.90
9305;DHT22;4690;52.422;13.486;2023-03-01T00:21:21;-2.20;99.90
9305;DHT22;4690;52.422;13.486;2023-03-01T00:23:48;-2.20;99.90
9305;DHT22;4690;52.422;13.486;2023-03-01T00:26:16;-2.20;99.90
9305;DHT22;4690;52.422;13.486;2023-03-01T00:28:43;-2.20;99.90
9305;DHT22;4690;52.422;13.486;2023-03-01T00:31:15;-2.30;99.90
9305;DHT22;4690;52.422;13.486;2023-03-01T00:33:43;-2.30;99.90
9305;DHT22;4690;52.422;13.486;2023-03-01T00:36:12;-2.30;99.90
9305;DHT22;4690;52.422;13.486;2023-03-01T00:38:41;-2.40;99.90
9305;DHT22;4690;52.422;13.486;2023-03-01T00:41:12;-2.40;99.90
9305;DHT22;4690;52.422;13.486;2023-03-01T00:43:40;-2.40;99.90
9305;DHT22;4690;52.422;13.486;2023-03-01T00:46:12;-2.50;99.90
9305;DHT22;4690;52.422;13.486;2023-03-01T00:48:41;-2.40;99.90
9305;DHT22;4690;52.422;13.486;2023-03-01T00:51:22;-2.40;99.90
9305;DHT22;4690;52.422;13.486;2023-03-01T00:53:54;-2.50;99.90
9305;DHT22;4690;52.422;13.486;2023-03-01T00:56:22;-2.50;99.90
9305;DHT22;4690;52.422;13.486;2023-03-01T00:58:48;-2.60;99.90
9305;DHT22;4690;52.422;13.486;2023-03-01T01:01:17;-2.60;99.90
9305;DHT22;4690;52.422;13.486;2023-03-01T01:04:22;-2.60;99.90
9305;DHT22;4690;52.422;13.486;2023-03-01T01:06:44;-2.60;99.90
9305;DHT22;4690;52.422;13.486;2023-03-01T01:09:14;-2.60;99.90
9305;DHT22;4690;52.422;13.486;2023-03-01T01:11:43;-2.60;99.90
9305;DHT22;4690;52.422;13.486;2023-03-01T01:14:13;-2.60;99.90
9305;DHT22;4690;52.422;13.486;2023-03-01T01:16:39;-2.60;99.90
9305;DHT22;4690;52.422;13.486;2023-03-01T01:19:05;-2.60;99.90
9305;DHT22;4690;52.422;13.486;2023-03-01T01:21:32;-2.60;99.90
9305;DHT22;4690;52.422;13.486;2023-03-01T01:23:58;-2.60;99.90
9305;DHT22;4690;52.422;13.486;2023-03-01T01:26:27;-2.70;99.90
9305;DHT22;4690;52.422;13.486;2023-03-01T01:28:55;-2.70;99.90
9305;DHT22;4690;52.422;13.486;2023-03-01T01:31:22;-2.70;99.90
9305;DHT22;4690;52.422;13.486;2023-03-01T01:33:50;-2.80;99.90
9305;DHT22;4690;52.422;13.486;2023-03-01T01:36:17;-2.80;99.90
9305;DHT22;4690;52.422;13.486;2023-03-01T01:38:43;-2.80;99.90
9305;DHT22;4690;52.422;13.486;2023-03-01T01:41:10;-2.80;99.90
9305;DHT22;4690;52.422;13.486;2023-03-01T01:43:40;-2.80;99.90
9305;DHT22;4690;52.422;13.486;2023-03-01T01:46:27;-2.90;99.90
9305;DHT22;4690;52.422;13.486;2023-03-01T01:49:00;-3.00;99.90
9305;DHT22;4690;52.422;13.486;2023-03-01T01:51:32;-2.90;99.90
9305;DHT22;4690;52.422;13.486;2023-03-01T01:54:09;-3.00;99.90
9305;DHT22;4690;52.422;13.486;2023-03-01T01:56:39;-3.10;99.90
9305;DHT22;4690;52.422;13.486;2023-03-01T01:59:09;-3.10;99.90
9305;DHT22;4690;52.422;13.486;2023-03-01T02:01:35;-3.10;99.90
9305;DHT22;4690;52.422;13.486;2023-03-01T02:04:01;-3.10;99.90
9305;DHT22;4690;52.422;13.486;2023-03-01T02:06:51;-3.10;99.90
9305;DHT22;4690;52.422;13.486;2023-03-01T02:09:23;-3.10;99.90
9305;DHT22;4690;52.422;13.486;2023-03-01T02:11:50;-3.10;99.90
9305;DHT22;4690;52.422;13.486;2023-03-01T02:14:17;-3.20;99.90
9305;DHT22;4690;52.422;13.486;2023-03-01T02:16:43;-3.20;99.90
9305;DHT22;4690;52.422;13.486;2023-03-01T02:19:16;-3.10;99.90
9305;DHT22;4690;52.422;13.486;2023-03-01T02:26:57;-3.20;99.90
9305;DHT22;4690;52.422;13.486;2023-03-01T02:29:24;-3.20;99.90
9305;DHT22;4690;52.422;13.486;2023-03-01T02:31:52;-3.20;99.90
9305;DHT22;4690;52.422;13.486;2023-03-01T02:34:23;-3.20;99.90
9305;DHT22;4690;52.422;13.486;2023-03-01T02:36:55;-3.20;99.90
9305;DHT22;4690;52.422;13.486;2023-03-01T02:39:35;-3.20;99.90
9305;DHT22;4690;52.422;13.486;2023-03-01T02:42:11;-3.30;99.90
9305;DHT22;4690;52.422;13.486;2023-03-01T02:44:39;-3.30;99.90
9305;DHT22;4690;52.422;13.486;2023-03-01T02:47:06;-3.30;99.90
9305;DHT22;4690;52.422;13.486;2023-03-01T02:49:36;-3.40;99.90
9305;DHT22;4690;52.422;13.486;2023-03-01T02:57:29;-3.30;99.90
9305;DHT22;4690;52.422;13.486;2023-03-01T02:59:58;-3.30;99.90
9305;DHT22;4690;52.422;13.486;2023-03-01T03:02:32;-3.30;99.90
9305;DHT22;4690;52.422;13.486;2023-03-01T03:05:03;-3.30;99.90
9305;DHT22;4690;52.422;13.486;2023-03-01T03:07:37;-3.40;99.90
9305;DHT22;4690;52.422;13.486;2023-03-01T03:10:07;-3.40;99.90
9305;DHT22;4690;52.422;13.486;2023-03-01T03:12:38;-3.40;99.90
9305;DHT22;4690;52.422;13.486;2023-03-01T03:15:06;-3.40;99.90
9305;DHT22;4690;52.422;13.486;2023-03-01T03:17:38;-3.40;99.90
9305;DHT22;4690;52.422;13.486;2023-03-01T03:20:09;-3.40;99.90
9305;DHT22;4690;52.422;13.486;2023-03-01T03:22:40;-3.50;99.90
9305;DHT22;4690;52.422;13.486;2023-03-01T03:25:09;-3.50;99.90
9305;DHT22;4690;52.422;13.486;2023-03-01T03:27:37;-3.60;99.90
9305;DHT22;4690;52.422;13.486;2023-03-01T03:30:05;-3.50;99.90
9305;DHT22;4690;52.422;13.486;2023-03-01T03:32:35;-3.60;99.90
9305;DHT22;4690;52.422;13.486;2023-03-01T03:35:03;-3.60;99.90
9305;DHT22;4690;52.422;13.486;2023-03-01T03:37:37;-3.60;99.90
9305;DHT22;4690;52.422;13.486;2023-03-01T03:40:25;-3.60;99.90
9305;DHT22;4690;52.422;13.486;2023-03-01T03:42:51;-3.60;99.90
9305;DHT22;4690;52.422;13.486;2023-03-01T03:45:17;-3.60;99.90
9305;DHT22;4690;52.422;13.486;2023-03-01T03:47:43;-3.60;99.90
9305;DHT22;4690;52.422;13.486;2023-03-01T03:50:11;-3.60;99.90
9305;DHT22;4690;52.422;13.486;2023-03-01T03:52:38;-3.60;99.90
9305;DHT22;4690;52.422;13.486;2023-03-01T03:55:05;-3.70;99.90
9305;DHT22;4690;52.422;13.486;2023-03-01T03:57:36;-3.70;99.90
9305;DHT22;4690;52.422;13.486;2023-03-01T04:00:04;-3.70;99.90
9305;DHT22;4690;52.422;13.486;2023-03-01T04:02:44;-3.80;99.90
9305;DHT22;4690;52.422;13.486;2023-03-01T04:05:13;-3.80;99.90
9305;DHT22;4690;52.422;13.486;2023-03-01T04:07:41;-3.80;99.90
9305;DHT22;4690;52.422;13.486;2023-03-01T04:10:13;-3.90;99.90
9305;DHT22;4690;52.422;13.486;2023-03-01T04:12:41;-3.90;99.90
9305;DHT22;4690;52.422;13.486;2023-03-01T04:15:09;-3.90;99.90
9305;DHT22;4690;52.422;13.486;2023-03-01T04:17:46;-3.90;99.90
9305;DHT22;4690;52.422;13.486;2023-03-01T04:20:14;-3.90;99.90
9305;DHT22;4690;52.422;13.486;2023-03-01T04:23:02;-3.90;99.90
9305;DHT22;4690;52.422;13.486;2023-03-01T04:25:56;-3.90;99.90
9305;DHT22;4690;52.422;13.486;2023-03-01T04:28:30;-3.90;99.90
9305;DHT22;4690;52.422;13.486;2023-03-01T04:31:10;-4.00;99.90
9305;DHT22;4690;52.422;13.486;2023-03-01T04:33:51;-4.00;99.90
9305;DHT22;4690;52.422;13.486;2023-03-01T04:36:26;-4.00;99.90
9305;DHT22;4690;52.422;13.486;2023-03-01T04:38:53;-3.90;99.90
9305;DHT22;4690;52.422;13.486;2023-03-01T04:41:22;-4.00;99.90
9305;DHT22;4690;52.422;13.486;2023-03-01T04:43:49;-4.00;99.90
9305;DHT22;4690;52.422;13.486;2023-03-01T04:46:17;-4.00;99.90
9305;DHT22;4690;52.422;13.486;2023-03-01T04:48:45;-4.00;99.90
9305;DHT22;4690;52.422;13.486;2023-03-01T04:51:12;-4.00;99.90
9305;DHT22;4690;52.422;13.486;2023-03-01T04:53:42;-4.10;99.90
9305;DHT22;4690;52.422;13.486;2023-03-01T04:56:08;-4.10;99.90
9305;DHT22;4690;52.422;13.486;2023-03-01T04:58:35;-4.00;99.90
9305;DHT22;4690;52.422;13.486;2023-03-01T05:01:01;-4.00;99.90
9305;DHT22;4690;52.422;13.486;2023-03-01T05:03:27;-4.10;99.90
9305;DHT22;4690;52.422;13.486;2023-03-01T05:05:53;-4.10;99.90
9305;DHT22;4690;52.422;13.486;2023-03-01T05:08:19;-4.10;99.90
9305;DHT22;4690;52.422;13.486;2023-03-01T05:10:49;-4.20;99.90
9305;DHT22;4690;52.422;13.486;2023-03-01T05:13:17;-4.10;99.90
9305;DHT22;4690;52.422;13.486;2023-03-01T05:15:55;-4.10;99.90
9305;DHT22;4690;52.422;13.486;2023-03-01T05:18:27;-4.20;99.90
9305;DHT22;4690;52.422;13.486;2023-03-01T05:20:54;-4.10;99.90
9305;DHT22;4690;52.422;13.486;2023-03-01T05:23:24;-4.20;99.90
9305;DHT22;4690;52.422;13.486;2023-03-01T05:25:50;-4.30;99.90
9305;DHT22;4690;52.422;13.486;2023-03-01T05:28:18;-4.20;99.90
9305;DHT22;4690;52.422;13.486;2023-03-01T05:30:46;-4.30;99.90
9305;DHT22;4690;52.422;13.486;2023-03-01T05:33:12;-4.20;99.90
9305;DHT22;4690;52.422;13.486;2023-03-01T05:35:42;-4.20;99.90
9305;DHT22;4690;52.422;13.486;2023-03-01T05:38:11;-4.30;99.90
9305;DHT22;4690;52.422;13.486;2023-03-01T05:40:45;-4.30;99.90
9305;DHT22;4690;52.422;13.486;2023-03-01T05:43:15;-4.30;99.90
9305;DHT22;4690;52.422;13.486;2023-03-01T05:45:42;-4.30;99.90
9305;DHT22;4690;52.422;13.486;2023-03-01T05:48:10;-4.30;99.90
9305;DHT22;4690;52.422;13.486;2023-03-01T05:50:39;-4.30;99.90
9305;DHT22;4690;52.422;13.486;2023-03-01T05:53:13;-4.30;99.90
9305;DHT22;4690;52.422;13.486;2023-03-01T05:55:43;-4.30;99.90
9305;DHT22;4690;52.422;13.486;2023-03-01T05:58:21;-4.30;99.90
9305;DHT22;4690;52.422;13.486;2023-03-01T06:00:48;-4.30;99.90
9305;DHT22;4690;52.422;13.486;2023-03-01T06:03:15;-4.30;99.90
9305;DHT22;4690;52.422;13.486;2023-03-01T06:05:42;-4.40;99.90
9305;DHT22;4690;52.422;13.486;2023-03-01T06:08:10;-4.30;99.90
9305;DHT22;4690;52.422;13.486;2023-03-01T06:10:36;-4.30;99.90
9305;DHT22;4690;52.422;13.486;2023-03-01T06:13:03;-4.30;99.90
9305;DHT22;4690;52.422;13.486;2023-03-01T06:15:29;-4.30;99.90
9305;DHT22;4690;52.422;13.486;2023-03-01T06:17:55;-4.30;99.90
9305;DHT22;4690;52.422;13.486;2023-03-01T06:20:27;-4.20;99.90
9305;DHT22;4690;52.422;13.486;2023-03-01T06:22:54;-4.20;99.90
9305;DHT22;4690;52.422;13.486;2023-03-01T06:25:22;-4.20;99.90
9305;DHT22;4690;52.422;13.486;2023-03-01T06:27:49;-4.20;99.90
9305;DHT22;4690;52.422;13.486;2023-03-01T06:30:18;-4.10;99.90
9305;DHT22;4690;52.422;13.486;2023-03-01T06:32:45;-4.00;99.90
9305;DHT22;4690;52.422;13.486;2023-03-01T06:35:14;-3.90;99.90
9305;DHT22;4690;52.422;13.486;2023-03-01T06:37:43;-3.80;99.90
9305;DHT22;4690;52.422;13.486;2023-03-01T06:40:11;-3.50;99.90
9305;DHT22;4690;52.422;13.486;2023-03-01T06:42:42;-3.30;99.90
9305;DHT22;4690;52.422;13.486;2023-03-01T06:45:13;-3.20;99.90
9305;DHT22;4690;52.422;13.486;2023-03-01T06:47:38;-3.00;99.90
9305;DHT22;4690;52.422;13.486;2023-03-01T06:50:05;-2.80;99.90
9305;DHT22;4690;52.422;13.486;2023-03-01T06:52:31;-2.60;99.90
9305;DHT22;4690;52.422;13.486;2023-03-01T06:54:57;-2.40;99.90
9305;DHT22;4690;52.422;13.486;2023-03-01T06:57:22;-2.10;99.90
9305;DHT22;4690;52.422;13.486;2023-03-01T06:59:48;-1.90;99.90
9305;DHT22;4690;52.422;13.486;2023-03-01T07:02:14;-1.80;99.90
9305;DHT22;4690;52.422;13.486;2023-03-01T07:04:41;-1.40;99.90
9305;DHT22;4690;52.422;13.486;2023-03-01T07:07:08;-1.20;99.90
9305;DHT22;4690;52.422;13.486;2023-03-01T07:09:33;-0.90;99.90
9305;DHT22;4690;52.422;13.486;2023-03-01T07:11:59;-0.70;99.90
9305;DHT22;4690;52.422;13.486;2023-03-01T07:14:25;-0.30;99.90
9305;DHT22;4690;52.422;13.486;2023-03-01T07:16:52;-0.20;99.90
9305;DHT22;4690;52.422;13.486;2023-03-01T07:19:18;0.20;99.90
9305;DHT22;4690;52.422;13.486;2023-03-01T07:21:44;0.50;99.90
9305;DHT22;4690;52.422;13.486;2023-03-01T07:24:10;0.80;99.90
9305;DHT22;4690;52.422;13.486;2023-03-01T07:26:37;1.00;99.90
9305;DHT22;4690;52.422;13.486;2023-03-01T07:29:05;1.20;99.90
9305;DHT22;4690;52.422;13.486;2023-03-01T07:31:34;1.40;99.90
9305;DHT22;4690;52.422;13.486;2023-03-01T07:34:00;1.80;99.90
9305;DHT22;4690;52.422;13.486;2023-03-01T07:36:26;2.00;99.90
9305;DHT22;4690;52.422;13.486;2023-03-01T07:38:52;2.30;99.90
9305;DHT22;4690;52.422;13.486;2023-03-01T07:41:20;2.40;99.90
9305;DHT22;4690;52.422;13.486;2023-03-01T07:43:47;2.40;99.90
9305;DHT22;4690;52.422;13.486;2023-03-01T07:46:13;2.20;99.90
9305;DHT22;4690;52.422;13.486;2023-03-01T07:48:39;2.30;99.90
9305;DHT22;4690;52.422;13.486;2023-03-01T07:51:06;2.30;99.90
9305;DHT22;4690;52.422;13.486;2023-03-01T07:53:33;2.40;99.90
9305;DHT22;4690;52.422;13.486;2023-03-01T07:56:04;2.50;99.90
9305;DHT22;4690;52.422;13.486;2023-03-01T07:58:35;2.60;99.90
9305;DHT22;4690;52.422;13.486;2023-03-01T08:01:08;2.80;99.90
9305;DHT22;4690;52.422;13.486;2023-03-01T08:03:35;2.70;99.90
9305;DHT22;4690;52.422;13.486;2023-03-01T08:06:03;2.70;99.90
9305;DHT22;4690;52.422;13.486;2023-03-01T08:08:30;2.40;99.90
9305;DHT22;4690;52.422;13.486;2023-03-01T08:10:58;2.60;99.90
9305;DHT22;4690;52.422;13.486;2023-03-01T08:13:24;2.90;99.90
9305;DHT22;4690;52.422;13.486;2023-03-01T08:15:51;3.00;99.90
9305;DHT22;4690;52.422;13.486;2023-03-01T08:18:19;3.00;99.90
9305;DHT22;4690;52.422;13.486;2023-03-01T08:20:46;3.40;99.90
9305;DHT22;4690;52.422;13.486;2023-03-01T08:23:12;3.70;99.90
9305;DHT22;4690;52.422;13.486;2023-03-01T08:25:39;3.80;99.90
9305;DHT22;4690;52.422;13.486;2023-03-01T08:28:05;3.90;99.90
9305;DHT22;4690;52.422;13.486;2023-03-01T08:30:31;4.40;99.90
9305;DHT22;4690;52.422;13.486;2023-03-01T08:32:57;4.60;99.90
9305;DHT22;4690;52.422;13.486;2023-03-01T08:35:23;4.90;99.90
9305;DHT22;4690;52.422;13.486;2023-03-01T08:37:49;5.10;99.90
9305;DHT22;4690;52.422;13.486;2023-03-01T08:40:14;5.00;99.90
9305;DHT22;4690;52.422;13.486;2023-03-01T08:42:41;5.10;99.90
9305;DHT22;4690;52.422;13.486;2023-03-01T08:45:11;5.50;99.90
9305;DHT22;4690;52.422;13.486;2023-03-01T08:47:39;5.40;99.90
9305;DHT22;4690;52.422;13.486;2023-03-01T08:50:05;5.50;99.90
9305;DHT22;4690;52.422;13.486;2023-03-01T08:52:32;5.80;99.90
9305;DHT22;4690;52.422;13.486;2023-03-01T08:54:58;5.90;99.90
9305;DHT22;4690;52.422;13.486;2023-03-01T08:57:26;6.00;99.90
9305;DHT22;4690;52.422;13.486;2023-03-01T08:59:52;6.00;99.90
9305;DHT22;4690;52.422;13.486;2023-03-01T09:02:21;6.10;99.90
9305;DHT22;4690;52.422;13.486;2023-03-01T09:04:47;6.20;99.90
9305;DHT22;4690;52.422;13.486;2023-03-01T09:07:12;6.20;99.90
9305;DHT22;4690;52.422;13.486;2023-03-01T09:09:38;5.90;99.90
9305;DHT22;4690;52.422;13.486;2023-03-01T09:12:04;5.90;99.90
9305;DHT22;4690;52.422;13.486;2023-03-01T09:14:30;6.20;99.90
9305;DHT22;4690;52.422;13.486;2023-03-01T09:16:56;6.00;99.90
9305;DHT22;4690;52.422;13.486;2023-03-01T09:19:22;5.90;99.90
9305;DHT22;4690;52.422;13.486;2023-03-01T09:21:47;6.00;99.90
9305;DHT22;4690;52.422;13.486;2023-03-01T09:24:21;6.00;99.90
9305;DHT22;4690;52.422;13.486;2023-03-01T09:26:49;6.20;99.90
9305;DHT22;4690;52.422;13.486;2023-03-01T09:29:15;6.60;99.90
9305;DHT22;4690;52.422;13.486;2023-03-01T09:31:42;6.50;99.90
9305;DHT22;4690;52.422;13.486;2023-03-01T09:34:08;6.50;99.90
9305;DHT22;4690;52.422;13.486;2023-03-01T09:36:35;6.40;99.90
9305;DHT22;4690;52.422;13.486;2023-03-01T09:39:02;6.00;99.90
9305;DHT22;4690;52.422;13.486;2023-03-01T09:47:41;6.00;99.90
9305;DHT22;4690;52.422;13.486;2023-03-01T09:50:16;6.10;99.90
9305;DHT22;4690;52.422;13.486;2023-03-01T09:53:05;6.20;99.90
9305;DHT22;4690;52.422;13.486;2023-03-01T10:06:39;5.50;99.90
9305;DHT22;4690;52.422;13.486;2023-03-01T10:09:16;5.60;99.90
9305;DHT22;4690;52.422;13.486;2023-03-01T10:11:47;5.60;99.90
9305;DHT22;4690;52.422;13.486;2023-03-01T10:17:33;5.50;99.90
9305;DHT22;4690;52.422;13.486;2023-03-01T10:22:58;5.70;99.90
9305;DHT22;4690;52.422;13.486;2023-03-01T10:31:04;5.60;99.90
9305;DHT22;4690;52.422;13.486;2023-03-01T10:33:36;5.70;99.90
9305;DHT22;4690;52.422;13.486;2023-03-01T10:36:05;5.80;99.90
9305;DHT22;4690;52.422;13.486;2023-03-01T10:41:21;5.90;99.90
9305;DHT22;4690;52.422;13.486;2023-03-01T10:43:54;5.90;99.90
9305;DHT22;4690;52.422;13.486;2023-03-01T10:46:34;6.00;99.90
9305;DHT22;4690;52.422;13.486;2023-03-01T10:49:18;6.20;99.90
9305;DHT22;4690;52.422;13.486;2023-03-01T10:51:51;6.30;99.90
9305;DHT22;4690;52.422;13.486;2023-03-01T10:54:31;6.30;99.90
9305;DHT22;4690;52.422;13.486;2023-03-01T10:57:00;6.30;99.90
9305;DHT22;4690;52.422;13.486;2023-03-01T10:59:37;6.30;99.90
9305;DHT22;4690;52.422;13.486;2023-03-01T11:02:23;6.30;99.90
9305;DHT22;4690;52.422;13.486;2023-03-01T11:08:06;6.70;99.90
9305;DHT22;4690;52.422;13.486;2023-03-01T11:10:35;7.00;99.90
9305;DHT22;4690;52.422;13.486;2023-03-01T11:15:41;7.50;99.00
9305;DHT22;4690;52.422;13.486;2023-03-01T11:18:21;8.10;98.90
9305;DHT22;4690;52.422;13.486;2023-03-01T11:20:51;8.40;96.80
9305;DHT22;4690;52.422;13.486;2023-03-01T11:23:21;8.30;93.90
9305;DHT22;4690;52.422;13.486;2023-03-01T11:25:56;8.50;94.80
9305;DHT22;4690;52.422;13.486;2023-03-01T11:28:29;8.50;95.10
9305;DHT22;4690;52.422;13.486;2023-03-01T11:31:00;8.70;95.40
9305;DHT22;4690;52.422;13.486;2023-03-01T11:36:44;8.10;96.30
9305;DHT22;4690;52.422;13.486;2023-03-01T11:39:47;8.60;95.30
9305;DHT22;4690;52.422;13.486;2023-03-01T11:45:16;9.80;96.50
9305;DHT22;4690;52.422;13.486;2023-03-01T11:50:52;10.20;94.60
9305;DHT22;4690;52.422;13.486;2023-03-01T11:53:35;10.50;94.80
9305;DHT22;4690;52.422;13.486;2023-03-01T11:56:31;10.40;93.90
9305;DHT22;4690;52.422;13.486;2023-03-01T12:07:49;9.60;92.10
9305;DHT22;4690;52.422;13.486;2023-03-01T12:13:51;9.50;91.10
9305;DHT22;4690;52.422;13.486;2023-03-01T12:16:51;10.10;91.10
9305;DHT22;4690;52.422;13.486;2023-03-01T12:23:20;10.60;91.00
9305;DHT22;4690;52.422;13.486;2023-03-01T12:49:04;10.50;90.00
9305;DHT22;4690;52.422;13.486;2023-03-01T12:51:35;11.00;87.50
9305;DHT22;4690;52.422;13.486;2023-03-01T12:54:12;10.80;85.90
9305;DHT22;4690;52.422;13.486;2023-03-01T12:56:41;10.80;85.00
9305;DHT22;4690;52.422;13.486;2023-03-01T12:59:23;11.10;85.00
9305;DHT22;4690;52.422;13.486;2023-03-01T13:05:17;9.90;82.10
9305;DHT22;4690;52.422;13.486;2023-03-01T13:08:01;10.20;81.10
9305;DHT22;4690;52.422;13.486;2023-03-01T13:10:57;10.40;83.30
9305;DHT22;4690;52.422;13.486;2023-03-01T13:13:27;10.40;79.80
9305;DHT22;4690;52.422;13.486;2023-03-01T13:15:54;10.30;81.50
9305;DHT22;4690;52.422;13.486;2023-03-01T13:20:51;9.70;85.60
9305;DHT22;4690;52.422;13.486;2023-03-01T13:26:09;9.20;81.50
9305;DHT22;4690;52.422;13.486;2023-03-01T13:46:53;9.70;82.30
9305;DHT22;4690;52.422;13.486;2023-03-01T13:49:27;9.30;80.90
9305;DHT22;4690;52.422;13.486;2023-03-01T13:51:55;9.40;83.10
9305;DHT22;4690;52.422;13.486;2023-03-01T13:54:29;9.50;84.70
9305;DHT22;4690;52.422;13.486;2023-03-01T13:56:59;9.70;84.10
9305;DHT22;4690;52.422;13.486;2023-03-01T13:59:26;9.70;82.60
9305;DHT22;4690;52.422;13.486;2023-03-01T14:01:57;9.90;83.00
9305;DHT22;4690;52.422;13.486;2023-03-01T14:04:30;9.60;80.80
9305;DHT22;4690;52.422;13.486;2023-03-01T14:07:21;9.30;80.30
9305;DHT22;4690;52.422;13.486;2023-03-01T14:09:54;9.30;84.50
9305;DHT22;4690;52.422;13.486;2023-03-01T14:17:58;9.30;81.50
9305;DHT22;4690;52.422;13.486;2023-03-01T14:20:41;9.40;82.20
9305;DHT22;4690;52.422;13.486;2023-03-01T14:23:13;9.50;80.50
9305;DHT22;4690;52.422;13.486;2023-03-01T14:25:54;9.20;77.60
9305;DHT22;4690;52.422;13.486;2023-03-01T14:28:30;9.30;77.40
9305;DHT22;4690;52.422;13.486;2023-03-01T14:31:00;9.30;78.90
9305;DHT22;4690;52.422;13.486;2023-03-01T14:33:35;9.10;78.90
9305;DHT22;4690;52.422;13.486;2023-03-01T14:36:08;9.10;78.40
9305;DHT22;4690;52.422;13.486;2023-03-01T14:38:38;9.20;79.90
9305;DHT22;4690;52.422;13.486;2023-03-01T14:41:18;9.30;79.20
9305;DHT22;4690;52.422;13.486;2023-03-01T14:43:52;9.20;77.70
9305;DHT22;4690;52.422;13.486;2023-03-01T14:46:24;9.20;80.00
9305;DHT22;4690;52.422;13.486;2023-03-01T14:49:19;9.00;77.80
9305;DHT22;4690;52.422;13.486;2023-03-01T14:52:03;9.00;76.20
9305;DHT22;4690;52.422;13.486;2023-03-01T14:54:50;8.90;76.90
9305;DHT22;4690;52.422;13.486;2023-03-01T14:57:25;9.00;74.60
9305;DHT22;4690;52.422;13.486;2023-03-01T14:59:58;8.90;76.60
9305;DHT22;4690;52.422;13.486;2023-03-01T15:02:29;8.90;76.20
9305;DHT22;4690;52.422;13.486;2023-03-01T15:05:00;9.00;76.20
9305;DHT22;4690;52.422;13.486;2023-03-01T15:07:33;9.00;77.00
9305;DHT22;4690;52.422;13.486;2023-03-01T15:10:01;9.00;77.30
9305;DHT22;4690;52.422;13.486;2023-03-01T15:15:20;8.90;79.20
9305;DHT22;4690;52.422;13.486;2023-03-01T15:18:03;8.70;80.20
9305;DHT22;4690;52.422;13.486;2023-03-01T15:20:40;8.70;81.80
9305;DHT22;4690;52.422;13.486;2023-03-01T15:23:27;8.70;81.50
9305;DHT22;4690;52.422;13.486;2023-03-01T15:25:55;8.60;82.70
9305;DHT22;4690;52.422;13.486;2023-03-01T15:28:31;8.60;85.40
9305;DHT22;4690;52.422;13.486;2023-03-01T15:31:23;8.50;86.20
9305;DHT22;4690;52.422;13.486;2023-03-01T15:33:51;8.20;84.50
9305;DHT22;4690;52.422;13.486;2023-03-01T15:36:41;8.20;84.00
9305;DHT22;4690;52.422;13.486;2023-03-01T15:41:58;8.10;84.70
9305;DHT22;4690;52.422;13.486;2023-03-01T15:44:29;8.00;85.40
9305;DHT22;4690;52.422;13.486;2023-03-01T15:47:00;7.90;84.90
9305;DHT22;4690;52.422;13.486;2023-03-01T15:49:41;7.90;84.60
9305;DHT22;4690;52.422;13.486;2023-03-01T15:52:34;7.70;84.80
9305;DHT22;4690;52.422;13.486;2023-03-01T15:55:14;7.70;87.20
9305;DHT22;4690;52.422;13.486;2023-03-01T15:57:42;7.50;87.70
9305;DHT22;4690;52.422;13.486;2023-03-01T16:00:12;7.50;87.30
9305;DHT22;4690;52.422;13.486;2023-03-01T16:02:41;7.40;87.50
9305;DHT22;4690;52.422;13.486;2023-03-01T16:07:52;7.40;88.80
9305;DHT22;4690;52.422;13.486;2023-03-01T16:10:19;7.30;89.30
9305;DHT22;4690;52.422;13.486;2023-03-01T16:12:45;7.20;90.20
9305;DHT22;4690;52.422;13.486;2023-03-01T16:15:17;7.10;90.60
9305;DHT22;4690;52.422;13.486;2023-03-01T16:17:44;7.00;90.80
9305;DHT22;4690;52.422;13.486;2023-03-01T16:20:10;6.90;90.70
9305;DHT22;4690;52.422;13.486;2023-03-01T16:22:36;6.90;91.20
9305;DHT22;4690;52.422;13.486;2023-03-01T16:25:02;6.80;91.50
9305;DHT22;4690;52.422;13.486;2023-03-01T16:27:28;6.70;92.50
9305;DHT22;4690;52.422;13.486;2023-03-01T16:29:54;6.70;92.30
9305;DHT22;4690;52.422;13.486;2023-03-01T16:32:20;6.70;92.60
9305;DHT22;4690;52.422;13.486;2023-03-01T16:34:45;6.50;93.90
9305;DHT22;4690;52.422;13.486;2023-03-01T16:37:15;6.30;94.00
9305;DHT22;4690;52.422;13.486;2023-03-01T16:39:42;6.20;94.40
9305;DHT22;4690;52.422;13.486;2023-03-01T16:42:08;6.10;95.30
9305;DHT22;4690;52.422;13.486;2023-03-01T16:44:33;5.90;96.00
9305;DHT22;4690;52.422;13.486;2023-03-01T16:46:59;5.80;96.00
9305;DHT22;4690;52.422;13.486;2023-03-01T16:49:25;5.70;96.20
9305;DHT22;4690;52.422;13.486;2023-03-01T16:51:53;5.60;96.50
9305;DHT22;4690;52.422;13.486;2023-03-01T16:54:19;5.40;96.90
9305;DHT22;4690;52.422;13.486;2023-03-01T16:56:45;5.30;97.50
9305;DHT22;4690;52.422;13.486;2023-03-01T16:59:10;5.20;97.70
9305;DHT22;4690;52.422;13.486;2023-03-01T17:01:36;5.10;97.60
9305;DHT22;4690;52.422;13.486;2023-03-01T17:04:08;5.00;98.00
9305;DHT22;4690;52.422;13.486;2023-03-01T17:06:38;4.90;98.30
9305;DHT22;4690;52.422;13.486;2023-03-01T17:09:04;4.90;98.60
9305;DHT22;4690;52.422;13.486;2023-03-01T17:11:30;4.80;99.20
9305;DHT22;4690;52.422;13.486;2023-03-01T17:13:56;4.60;99.50
9305;DHT22;4690;52.422;13.486;2023-03-01T17:16:21;4.50;99.90
9305;DHT22;4690;52.422;13.486;2023-03-01T17:18:48;4.40;99.90
9305;DHT22;4690;52.422;13.486;2023-03-01T17:21:15;4.30;99.90
9305;DHT22;4690;52.422;13.486;2023-03-01T17:23:43;4.30;99.90
9305;DHT22;4690;52.422;13.486;2023-03-01T17:26:09;4.20;99.90
9305;DHT22;4690;52.422;13.486;2023-03-01T17:28:36;4.10;99.90
9305;DHT22;4690;52.422;13.486;2023-03-01T17:31:04;4.00;99.90
9305;DHT22;4690;52.422;13.486;2023-03-01T17:33:31;3.90;99.90
9305;DHT22;4690;52.422;13.486;2023-03-01T17:35:58;3.70;99.90
9305;DHT22;4690;52.422;13.486;2023-03-01T17:38:25;3.60;99.90
9305;DHT22;4690;52.422;13.486;2023-03-01T17:40:51;3.60;99.90
9305;DHT22;4690;52.422;13.486;2023-03-01T17:43:17;3.50;99.90
9305;DHT22;4690;52.422;13.486;2023-03-01T17:45:44;3.40;99.90
9305;DHT22;4690;52.422;13.486;2023-03-01T17:48:14;3.40;99.90
9305;DHT22;4690;52.422;13.486;2023-03-01T17:50:40;3.30;99.90
9305;DHT22;4690;52.422;13.486;2023-03-01T17:53:07;3.20;99.90
9305;DHT22;4690;52.422;13.486;2023-03-01T17:55:38;3.00;99.90
9305;DHT22;4690;52.422;13.486;2023-03-01T17:58:06;3.00;99.90
9305;DHT22;4690;52.422;13.486;2023-03-01T18:00:34;3.00;99.90
9305;DHT22;4690;52.422;13.486;2023-03-01T18:03:00;2.90;99.90
9305;DHT22;4690;52.422;13.486;2023-03-01T18:05:26;2.80;99.90
9305;DHT22;4690;52.422;13.486;2023-03-01T18:07:53;2.80;99.90
9305;DHT22;4690;52.422;13.486;2023-03-01T18:10:19;2.70;99.90
9305;DHT22;4690;52.422;13.486;2023-03-01T18:12:45;2.60;99.90
9305;DHT22;4690;52.422;13.486;2023-03-01T18:15:11;2.50;99.90
9305;DHT22;4690;52.422;13.486;2023-03-01T18:17:37;2.50;99.90
9305;DHT22;4690;52.422;13.486;2023-03-01T18:20:04;2.40;99.90
9305;DHT22;4690;52.422;13.486;2023-03-01T18:22:31;2.40;99.90
9305;DHT22;4690;52.422;13.486;2023-03-01T18:24:57;2.40;99.90
9305;DHT22;4690;52.422;13.486;2023-03-01T18:27:23;2.30;99.90
9305;DHT22;4690;52.422;13.486;2023-03-01T18:29:50;2.30;99.90
9305;DHT22;4690;52.422;13.486;2023-03-01T18:32:16;2.30;99.90
9305;DHT22;4690;52.422;13.486;2023-03-01T18:34:42;2.30;99.90
9305;DHT22;4690;52.422;13.486;2023-03-01T18:37:08;2.20;99.90